createdAt,value
2018-12-30T00:01:38.399Z,1.42
2018-12-30T00:04:28.126Z,1.31
2018-12-30T00:07:12.466Z,1.43
2018-12-30T00:10:02.967Z,1.31
2018-12-30T00:12:52.769Z,1.47
2018-12-30T00:15:37.375Z,1.46
2018-12-30T00:18:27.557Z,1.45
2018-12-30T00:21:17.329Z,1.41
2018-12-30T00:24:07.097Z,1.42
2018-12-30T00:26:49.741Z,1.44
2018-12-30T00:29:58.683Z,1.45
2018-12-30T00:32:43.209Z,1.33
2018-12-30T00:35:33.054Z,1.39
2018-12-30T00:38:22.863Z,1.38
2018-12-30T00:46:35.689Z,1.42
2018-12-30T00:49:25.525Z,1.40
2018-12-30T00:52:15.367Z,1.44
2018-12-30T00:55:05.269Z,1.39
2018-12-30T00:57:55.022Z,1.44
2018-12-30T01:00:37.599Z,1.47
2018-12-30T01:03:27.687Z,1.46
2018-12-30T01:06:17.615Z,1.44
2018-12-30T01:09:02.062Z,1.51
2018-12-30T01:11:44.977Z,1.51
2018-12-30T01:14:34.777Z,1.47
2018-12-30T01:17:16.889Z,1.52
2018-12-30T01:20:06.701Z,1.52
2018-12-30T01:22:56.541Z,1.52
2018-12-30T01:25:46.534Z,1.50
2018-12-30T01:28:36.420Z,1.52
2018-12-30T01:31:26.179Z,1.57
2018-12-30T01:34:15.968Z,1.57
2018-12-30T01:37:05.705Z,1.54
2018-12-30T01:39:48.102Z,1.60
2018-12-30T01:42:37.894Z,1.44
2018-12-30T01:45:19.839Z,1.56
2018-12-30T01:48:09.588Z,1.61
2018-12-30T01:50:51.995Z,1.57
2018-12-30T01:53:41.745Z,1.55
2018-12-30T01:56:28.981Z,1.56
2018-12-30T01:59:18.757Z,1.50
2018-12-30T02:02:01.465Z,1.56
2018-12-30T02:04:51.411Z,1.56
2018-12-30T02:07:33.756Z,1.54
2018-12-30T02:10:23.499Z,1.58
2018-12-30T02:13:06.125Z,1.48
2018-12-30T02:15:55.887Z,1.55
2018-12-30T02:18:40.215Z,1.46
2018-12-30T02:21:30.071Z,1.56
2018-12-30T02:24:12.964Z,1.59
2018-12-30T02:27:02.693Z,1.47
2018-12-30T02:29:46.281Z,1.50
2018-12-30T02:32:36.006Z,1.62
2018-12-30T02:35:18.901Z,1.62
2018-12-30T02:38:08.670Z,1.64
2018-12-30T02:40:52.646Z,1.48
2018-12-30T02:43:42.770Z,1.65
2018-12-30T02:46:27.308Z,1.70
2018-12-30T02:49:17.041Z,1.72
2018-12-30T02:51:59.236Z,1.75
2018-12-30T02:57:54.953Z,1.69
2018-12-30T03:00:37.105Z,1.80
2018-12-30T03:03:27.188Z,1.86
2018-12-30T03:06:17.036Z,1.83
2018-12-30T03:09:08.125Z,1.84
2018-12-30T03:11:57.859Z,1.86
2018-12-30T03:14:40.210Z,1.87
2018-12-30T03:17:30.002Z,1.86
2018-12-30T03:20:18.485Z,1.95
2018-12-30T03:23:08.393Z,1.97
2018-12-30T03:28:55.119Z,1.93
2018-12-30T03:31:45.040Z,2.01
2018-12-30T03:34:34.872Z,1.89
2018-12-30T03:37:18.116Z,1.99
2018-12-30T03:40:00.448Z,2.04
2018-12-30T03:42:50.230Z,2.04
2018-12-30T03:48:47.680Z,2.09
2018-12-30T03:51:29.753Z,2.06
2018-12-30T03:54:19.660Z,1.97
2018-12-30T03:57:09.500Z,2.12
2018-12-30T03:59:59.500Z,2.15
2018-12-30T04:02:49.279Z,2.19
2018-12-30T04:05:39.061Z,2.23
2018-12-30T04:08:28.995Z,2.28
2018-12-30T04:11:18.812Z,2.31
2018-12-30T04:14:08.539Z,2.28
2018-12-30T04:17:17.352Z,2.33
2018-12-30T04:20:07.173Z,2.34
2018-12-30T04:22:49.449Z,2.30
2018-12-30T04:25:39.172Z,2.33
2018-12-30T04:28:21.847Z,2.16
2018-12-30T04:31:11.665Z,2.34
2018-12-30T04:33:54.293Z,2.30
2018-12-30T04:36:44.096Z,2.29
2018-12-30T04:39:27.917Z,2.25
2018-12-30T04:42:10.741Z,2.09
2018-12-30T04:48:03.648Z,2.16
2018-12-30T04:50:45.812Z,2.15
2018-12-30T04:53:35.696Z,2.15
2018-12-30T04:56:25.502Z,2.18
2018-12-30T04:59:15.396Z,2.17
2018-12-30T05:02:05.123Z,2.06
2018-12-30T05:07:46.356Z,2.15
2018-12-30T05:10:17.067Z,2.03
2018-12-30T05:13:06.829Z,2.16
2018-12-30T05:15:48.793Z,2.18
2018-12-30T05:18:38.622Z,2.10
2018-12-30T05:21:28.400Z,2.18
2018-12-30T05:24:18.202Z,2.23
2018-12-30T05:27:08.120Z,2.25
2018-12-30T05:29:57.942Z,2.26
2018-12-30T05:32:47.710Z,2.16
2018-12-30T05:35:30.478Z,2.34
2018-12-30T05:38:20.248Z,2.36
2018-12-30T05:41:10.116Z,2.29
2018-12-30T05:43:59.872Z,2.33
2018-12-30T05:46:49.667Z,2.29
2018-12-30T05:49:39.408Z,2.28
2018-12-30T05:55:32.831Z,2.24
2018-12-30T05:58:15.343Z,2.32
2018-12-30T06:01:05.180Z,2.32
2018-12-30T06:03:55.181Z,2.35
2018-12-30T06:06:44.898Z,2.25
2018-12-30T06:09:27.036Z,2.37
2018-12-30T06:12:16.947Z,2.39
2018-12-30T06:15:07.184Z,2.38
2018-12-30T06:17:56.960Z,2.43
2018-12-30T06:20:46.726Z,2.37
2018-12-30T06:23:36.531Z,2.36
2018-12-30T06:26:26.391Z,2.35
2018-12-30T06:29:35.242Z,2.36
2018-12-30T06:32:24.977Z,2.39
2018-12-30T06:35:07.374Z,2.47
2018-12-30T06:37:57.213Z,2.42
2018-12-30T06:40:47.049Z,2.56
2018-12-30T06:43:36.822Z,2.73
2018-12-30T06:46:26.639Z,2.80
2018-12-30T06:49:10.602Z,2.81
2018-12-30T06:51:53.218Z,2.76
2018-12-30T06:54:43.006Z,2.77
2018-12-30T06:57:32.890Z,2.69
2018-12-30T07:00:22.704Z,2.70
2018-12-30T07:03:12.520Z,2.78
2018-12-30T07:06:02.353Z,2.75
2018-12-30T07:08:52.160Z,2.82
2018-12-30T07:11:34.706Z,2.71
2018-12-30T07:14:24.514Z,2.65
2018-12-30T07:22:30.874Z,2.61
2018-12-30T07:25:01.529Z,2.72
2018-12-30T07:27:51.352Z,2.76
2018-12-30T07:30:41.497Z,2.75
2018-12-30T07:33:23.602Z,2.63
2018-12-30T07:36:13.362Z,2.81
2018-12-30T07:38:57.237Z,2.83
2018-12-30T07:41:46.959Z,2.84
2018-12-30T07:44:29.492Z,2.80
2018-12-30T07:47:19.242Z,2.75
2018-12-30T07:50:01.722Z,2.74
2018-12-30T07:52:51.492Z,2.71
2018-12-30T07:55:33.427Z,2.67
2018-12-30T07:58:23.246Z,2.66
2018-12-30T08:01:05.725Z,2.68
2018-12-30T08:03:55.483Z,2.70
2018-12-30T08:06:38.361Z,2.75
2018-12-30T08:09:28.125Z,2.80
2018-12-30T08:12:10.427Z,2.77
2018-12-30T08:15:00.241Z,2.90
2018-12-30T08:21:03.516Z,2.96
2018-12-30T08:23:53.553Z,3.01
2018-12-30T08:26:43.351Z,3.06
2018-12-30T08:29:33.161Z,3.05
2018-12-30T08:32:23.011Z,3.08
2018-12-30T08:35:12.918Z,3.03
2018-12-30T08:38:02.666Z,3.09
2018-12-30T08:40:52.401Z,2.98
2018-12-30T08:43:42.152Z,3.12
2018-12-30T08:46:24.084Z,3.11
2018-12-30T08:49:13.835Z,3.21
2018-12-30T08:52:00.936Z,3.16
2018-12-30T08:54:52.122Z,3.27
2018-12-30T08:57:35.005Z,3.31
2018-12-30T09:00:06.280Z,3.34
2018-12-30T09:02:56.035Z,3.33
2018-12-30T09:05:38.943Z,3.38
2018-12-30T09:11:24.034Z,3.48
2018-12-30T09:17:10.465Z,3.47
2018-12-30T09:20:00.236Z,3.30
2018-12-30T09:22:42.702Z,3.33
2018-12-30T09:25:32.434Z,3.49
2018-12-30T09:28:18.504Z,3.49
2018-12-30T09:34:15.064Z,3.56
2018-12-30T09:36:57.431Z,3.56
2018-12-30T09:39:47.213Z,3.55
2018-12-30T09:42:37.397Z,3.63
2018-12-30T09:45:26.601Z,3.59
2018-12-30T09:48:15.741Z,3.56
2018-12-30T09:51:05.649Z,3.66
2018-12-30T09:53:55.440Z,3.58
2018-12-30T09:56:37.856Z,3.54
2018-12-30T09:59:27.921Z,3.51
2018-12-30T10:02:17.741Z,3.48
2018-12-30T10:05:07.601Z,3.50
2018-12-30T10:10:55.015Z,3.42
2018-12-30T10:13:38.120Z,3.27
2018-12-30T10:19:25.647Z,3.25
2018-12-30T10:22:15.479Z,3.20
2018-12-30T10:24:57.715Z,3.34
2018-12-30T10:27:47.447Z,3.40
2018-12-30T10:30:29.926Z,3.42
2018-12-30T10:33:19.980Z,3.45
2018-12-30T10:36:06.445Z,3.48
2018-12-30T10:38:56.195Z,3.47
2018-12-30T10:41:40.741Z,3.50
2018-12-30T10:44:30.516Z,3.45
2018-12-30T10:47:13.993Z,3.48
2018-12-30T10:50:03.750Z,3.49
2018-12-30T10:52:46.126Z,3.31
2018-12-30T10:55:35.954Z,3.48
2018-12-30T10:58:18.761Z,3.61
2018-12-30T11:01:08.531Z,3.69
2018-12-30T11:03:50.696Z,3.91
2018-12-30T11:06:40.476Z,3.94
2018-12-30T11:09:22.661Z,3.95
2018-12-30T11:12:13.224Z,3.93
2018-12-30T11:14:57.320Z,3.96
2018-12-30T11:17:47.079Z,3.93
2018-12-30T11:20:29.091Z,3.86
2018-12-30T11:23:37.914Z,3.94
2018-12-30T11:26:20.377Z,3.93
2018-12-30T11:29:10.219Z,3.91
2018-12-30T11:32:00.237Z,3.85
2018-12-30T11:34:50.066Z,3.85
2018-12-30T11:37:39.916Z,3.86
2018-12-30T11:46:10.893Z,3.88
2018-12-30T11:48:54.310Z,3.92
2018-12-30T11:51:36.719Z,4.01
2018-12-30T11:57:21.896Z,4.03
2018-12-30T12:00:06.673Z,4.03
2018-12-30T12:02:56.562Z,4.07
2018-12-30T12:05:46.446Z,4.02
2018-12-30T12:08:36.291Z,4.08
2018-12-30T12:11:26.104Z,3.94
2018-12-30T12:14:15.945Z,4.02
2018-12-30T12:17:05.773Z,4.08
2018-12-30T12:19:55.843Z,4.15
2018-12-30T12:22:45.566Z,4.15
2018-12-30T12:25:28.854Z,4.15
2018-12-30T12:31:15.022Z,4.18
2018-12-30T12:34:04.162Z,4.21
2018-12-30T12:36:46.759Z,4.39
2018-12-30T12:39:36.468Z,4.31
2018-12-30T12:42:19.944Z,4.26
2018-12-30T12:45:09.654Z,4.34
2018-12-30T12:47:52.400Z,4.29
2018-12-30T12:50:42.116Z,4.36
2018-12-30T12:53:24.614Z,4.36
2018-12-30T12:56:14.375Z,4.40
2018-12-30T12:58:56.968Z,4.49
2018-12-30T13:01:46.724Z,4.53
2018-12-30T13:04:29.295Z,4.46
2018-12-30T13:07:19.024Z,4.52
2018-12-30T13:10:01.518Z,4.47
2018-12-30T13:12:51.287Z,4.70
2018-12-30T13:15:34.022Z,4.74
2018-12-30T13:18:23.776Z,4.96
2018-12-30T13:21:06.200Z,4.86
2018-12-30T13:23:55.943Z,4.88
2018-12-30T13:26:38.718Z,4.71
2018-12-30T13:29:28.530Z,4.67
2018-12-30T13:32:10.588Z,4.66
2018-12-30T13:35:00.368Z,4.58
2018-12-30T13:37:50.116Z,4.63
2018-12-30T13:40:39.853Z,4.63
2018-12-30T13:43:29.610Z,4.64
2018-12-30T13:46:13.764Z,4.46
2018-12-30T13:49:03.520Z,4.56
2018-12-30T13:51:46.350Z,4.63
2018-12-30T13:54:28.518Z,4.64
2018-12-30T14:00:08.751Z,4.66
2018-12-30T14:02:58.511Z,4.66
2018-12-30T14:05:40.698Z,4.48
2018-12-30T14:08:30.437Z,4.39
2018-12-30T14:11:12.846Z,4.36
2018-12-30T14:14:02.586Z,4.35
2018-12-30T14:16:52.346Z,4.56
2018-12-30T14:19:35.883Z,4.61
2018-12-30T14:22:18.052Z,4.66
2018-12-30T14:25:07.801Z,4.67
2018-12-30T14:27:50.221Z,4.77
2018-12-30T14:30:39.966Z,4.74
2018-12-30T14:33:22.857Z,4.58
2018-12-30T14:36:12.591Z,4.52
2018-12-30T14:38:55.504Z,4.61
2018-12-30T14:41:45.298Z,4.59
2018-12-30T14:44:27.588Z,4.50
2018-12-30T14:47:17.319Z,4.27
2018-12-30T14:50:01.069Z,4.44
2018-12-30T14:52:50.814Z,4.50
2018-12-30T14:55:32.995Z,4.58
2018-12-30T14:58:22.765Z,4.28
2018-12-30T15:01:05.280Z,4.25
2018-12-30T15:03:55.037Z,4.37
2018-12-30T15:06:37.303Z,4.57
2018-12-30T15:09:27.282Z,4.59
2018-12-30T15:12:10.080Z,4.33
2018-12-30T15:14:59.828Z,3.95
2018-12-30T15:17:41.827Z,3.95
2018-12-30T15:20:31.548Z,3.80
2018-12-30T15:23:13.995Z,3.68
2018-12-30T15:26:03.751Z,3.64
2018-12-30T15:28:53.466Z,3.68
2018-12-30T15:31:37.033Z,3.57
2018-12-30T15:34:19.689Z,3.56
2018-12-30T15:37:09.476Z,3.55
2018-12-30T15:39:59.258Z,3.49
2018-12-30T15:42:49.039Z,3.50
2018-12-30T15:45:38.969Z,3.45
2018-12-30T15:48:28.783Z,3.43
2018-12-30T15:51:18.525Z,3.44
2018-12-30T15:54:08.276Z,3.35
2018-12-30T15:56:58.046Z,3.44
2018-12-30T15:59:47.773Z,3.51
2018-12-30T16:02:29.927Z,3.58
2018-12-30T16:05:19.701Z,3.56
2018-12-30T16:08:09.427Z,3.67
2018-12-30T16:10:59.239Z,3.66
2018-12-30T16:13:48.990Z,3.76
2018-12-30T16:16:38.785Z,3.76
2018-12-30T16:19:28.602Z,3.95
2018-12-30T16:22:18.377Z,4.11
2018-12-30T16:25:08.249Z,4.02
2018-12-30T16:27:58.057Z,3.86
2018-12-30T16:30:47.835Z,3.86
2018-12-30T16:33:37.599Z,3.85
2018-12-30T16:36:27.381Z,3.99
2018-12-30T16:39:36.325Z,4.11
2018-12-30T16:42:26.149Z,3.84
2018-12-30T16:45:15.927Z,3.84
2018-12-30T16:48:05.741Z,3.77
2018-12-30T16:50:56.346Z,3.72
2018-12-30T16:53:46.163Z,3.87
2018-12-30T16:56:36.084Z,3.89
2018-12-30T16:59:25.839Z,4.07
2018-12-30T17:02:15.646Z,4.08
2018-12-30T17:05:06.298Z,3.98
2018-12-30T17:08:15.302Z,3.98
2018-12-30T17:11:05.069Z,3.87
2018-12-30T17:13:54.833Z,3.89
2018-12-30T17:16:44.625Z,3.90
2018-12-30T17:19:34.425Z,3.83
2018-12-30T17:22:24.191Z,3.82
2018-12-30T17:25:14.055Z,3.91
2018-12-30T17:28:03.767Z,3.87
2018-12-30T17:30:53.510Z,3.90
2018-12-30T17:33:35.666Z,3.88
2018-12-30T17:36:25.483Z,3.89
2018-12-30T17:39:15.200Z,3.83
2018-12-30T17:42:04.934Z,3.87
2018-12-30T17:47:56.412Z,3.96
2018-12-30T17:50:46.155Z,3.76
2018-12-30T17:53:28.425Z,3.69
2018-12-30T17:56:18.160Z,3.84
2018-12-30T17:59:00.928Z,3.79
2018-12-30T18:01:50.702Z,3.92
2018-12-30T18:04:40.464Z,3.93
2018-12-30T18:07:22.882Z,3.94
2018-12-30T18:10:12.602Z,3.94
2018-12-30T18:15:56.324Z,3.75
2018-12-30T18:18:46.111Z,3.63
2018-12-30T18:26:52.438Z,3.81
2018-12-30T18:29:42.142Z,3.90
2018-12-30T18:32:24.590Z,3.96
2018-12-30T18:35:14.291Z,3.77
2018-12-30T18:37:56.744Z,3.90
2018-12-30T18:40:46.512Z,3.83
2018-12-30T18:43:28.882Z,3.72
2018-12-30T18:46:18.614Z,3.75
2018-12-30T18:48:49.295Z,3.66
2018-12-30T18:51:39.017Z,3.75
2018-12-30T18:54:21.379Z,3.74
2018-12-30T18:57:11.087Z,3.93
2018-12-30T18:59:53.396Z,3.85
2018-12-30T19:02:43.113Z,3.38
2018-12-30T19:05:25.777Z,3.04
2018-12-30T19:08:15.476Z,3.20
2018-12-30T19:11:05.339Z,2.96
2018-12-30T19:13:51.995Z,3.14
2018-12-30T19:16:35.171Z,2.91
2018-12-30T19:19:25.404Z,2.98
2018-12-30T19:25:19.353Z,2.95
2018-12-30T19:28:01.977Z,2.86
2018-12-30T19:30:51.846Z,2.71
2018-12-30T19:33:41.767Z,2.68
2018-12-30T19:36:31.695Z,2.58
2018-12-30T19:39:21.261Z,2.64
2018-12-30T19:48:39.204Z,2.75
2018-12-30T19:51:29.279Z,2.79
2018-12-30T19:54:12.091Z,2.91
2018-12-30T19:57:01.953Z,2.98
2018-12-30T19:59:44.573Z,3.24
2018-12-30T20:02:34.649Z,3.32
2018-12-30T20:05:18.035Z,3.38
2018-12-30T20:08:07.764Z,3.48
2018-12-30T20:10:50.955Z,3.59
2018-12-30T20:13:41.036Z,3.59
2018-12-30T20:16:24.139Z,3.48
2018-12-30T20:19:13.886Z,3.55
2018-12-30T20:21:56.131Z,3.63
2018-12-30T20:24:45.947Z,3.61
2018-12-30T20:27:32.373Z,3.64
2018-12-30T20:35:54.452Z,3.58
2018-12-30T20:38:44.503Z,3.60
2018-12-30T20:41:30.873Z,3.62
2018-12-30T20:44:17.766Z,3.63
2018-12-30T20:46:48.540Z,3.49
2018-12-30T20:49:38.662Z,3.63
2018-12-30T20:52:28.442Z,3.62
2018-12-30T20:55:11.594Z,3.60
2018-12-30T20:58:01.357Z,3.69
2018-12-30T21:00:43.346Z,3.78
2018-12-30T21:03:33.112Z,3.84
2018-12-30T21:06:16.010Z,3.82
2018-12-30T21:12:22.567Z,3.95
2018-12-30T21:15:12.824Z,3.84
2018-12-30T21:18:02.898Z,3.78
2018-12-30T21:20:53.514Z,3.68
2018-12-30T21:23:44.541Z,3.88
2018-12-30T21:26:34.417Z,4.00
2018-12-30T21:29:24.258Z,4.04
2018-12-30T21:32:14.048Z,3.74
2018-12-30T21:34:56.182Z,3.60
2018-12-30T21:37:46.212Z,3.19
2018-12-30T21:40:36.068Z,3.03
2018-12-30T21:43:25.793Z,2.87
2018-12-30T21:49:19.182Z,2.88
2018-12-30T21:52:01.362Z,2.90
2018-12-30T21:54:51.084Z,2.99
2018-12-30T21:57:40.808Z,3.00
2018-12-30T22:00:30.542Z,3.08
2018-12-30T22:03:12.810Z,3.06
2018-12-30T22:06:02.603Z,3.04
2018-12-30T22:08:45.224Z,2.97
2018-12-30T22:11:34.976Z,2.95
2018-12-30T22:17:20.973Z,2.99
2018-12-30T22:20:10.744Z,3.07
2018-12-30T22:22:53.542Z,3.15
2018-12-30T22:25:43.293Z,3.40
2018-12-30T22:28:25.714Z,3.47
2018-12-30T22:31:15.481Z,3.53
2018-12-30T22:33:57.876Z,3.71
2018-12-30T22:39:46.916Z,3.75
2018-12-30T22:42:32.976Z,3.71
2018-12-30T22:45:20.558Z,3.78
2018-12-30T22:51:13.955Z,3.70
2018-12-30T22:53:56.153Z,3.69
2018-12-30T22:56:58.295Z,3.66
2018-12-30T22:59:44.403Z,3.67
2018-12-30T23:02:34.505Z,3.38
2018-12-30T23:05:17.686Z,3.32
2018-12-30T23:08:07.453Z,3.14
2018-12-30T23:10:53.507Z,3.47
2018-12-30T23:13:43.296Z,3.69
2018-12-30T23:16:25.509Z,3.81
2018-12-30T23:19:15.233Z,3.66
2018-12-30T23:21:57.221Z,3.93
2018-12-30T23:24:46.992Z,3.89
2018-12-30T23:27:29.683Z,4.02
2018-12-30T23:30:19.476Z,3.93
2018-12-30T23:33:06.526Z,3.90
2018-12-30T23:35:56.315Z,3.91
2018-12-30T23:38:39.423Z,4.04
2018-12-30T23:41:29.436Z,4.13
2018-12-30T23:44:13.949Z,4.02
2018-12-30T23:47:03.062Z,3.95
2018-12-30T23:49:47.093Z,3.89
2018-12-30T23:52:36.882Z,3.99
2018-12-30T23:55:19.347Z,4.04
2018-12-30T23:58:09.075Z,3.98
